createdAt,value
2019-05-05T00:01:37.119Z,6.20
2019-05-05T00:04:06.868Z,8.07
2019-05-05T00:06:35.348Z,7.23
2019-05-05T00:09:05.460Z,3.87
2019-05-05T00:11:37.937Z,8.13
2019-05-05T00:14:08.152Z,6.27
2019-05-05T00:16:46.940Z,8.17
2019-05-05T00:19:28.778Z,6.80
2019-05-05T00:21:45.001Z,7.80
2019-05-05T00:24:15.162Z,7.50
2019-05-05T00:26:43.204Z,7.90
2019-05-05T00:29:11.330Z,6.47
2019-05-05T00:31:39.516Z,6.80
2019-05-05T00:34:07.824Z,5.80
2019-05-05T00:36:35.949Z,6.70
2019-05-05T00:39:05.863Z,6.53
2019-05-05T00:41:34.649Z,7.77
2019-05-05T00:44:04.669Z,6.60
2019-05-05T00:46:46.502Z,6.03
2019-05-05T00:49:14.700Z,8.87
2019-05-05T00:51:44.341Z,8.73
2019-05-05T00:54:14.735Z,5.80
2019-05-05T00:56:42.456Z,7.50
2019-05-05T00:59:17.992Z,8.00
2019-05-05T01:01:59.648Z,7.47
2019-05-05T01:04:45.781Z,6.27
2019-05-05T01:07:14.348Z,9.90
2019-05-05T01:09:45.002Z,9.83
2019-05-05T01:12:14.921Z,13.23
2019-05-05T01:14:44.792Z,11.23
2019-05-05T01:17:14.685Z,12.03
2019-05-05T01:19:42.962Z,8.07
2019-05-05T01:22:11.220Z,8.27
2019-05-05T01:24:39.403Z,11.37
2019-05-05T01:27:07.613Z,10.53
2019-05-05T01:29:35.732Z,9.33
2019-05-05T01:32:05.628Z,7.27
2019-05-05T01:34:37.901Z,7.27
2019-05-05T01:37:07.731Z,9.90
2019-05-05T01:39:40.625Z,8.73
2019-05-05T01:42:10.468Z,10.20
2019-05-05T01:44:38.574Z,11.00
2019-05-05T01:47:06.711Z,10.27
2019-05-05T01:49:34.833Z,8.03
2019-05-05T01:52:04.331Z,9.97
2019-05-05T01:54:32.655Z,9.67
2019-05-05T01:57:00.961Z,10.73
2019-05-05T01:59:29.505Z,9.73
2019-05-05T02:01:57.684Z,10.73
2019-05-05T02:04:25.827Z,7.87
2019-05-05T02:06:54.952Z,7.73
2019-05-05T02:09:25.025Z,9.53
2019-05-05T02:11:54.696Z,9.03
2019-05-05T02:14:24.649Z,10.20
2019-05-05T02:16:54.622Z,9.00
2019-05-05T02:19:25.038Z,7.33
2019-05-05T02:21:54.736Z,10.93
2019-05-05T02:24:25.098Z,15.30
2019-05-05T02:26:54.547Z,19.43
2019-05-05T02:29:37.008Z,21.33
2019-05-05T02:32:19.127Z,18.43
2019-05-05T02:34:51.340Z,23.47
2019-05-05T02:37:19.694Z,14.23
2019-05-05T02:39:57.847Z,16.67
2019-05-05T02:42:18.853Z,17.63
2019-05-05T02:44:47.536Z,12.07
2019-05-05T02:47:20.897Z,12.80
2019-05-05T02:49:49.152Z,16.23
2019-05-05T02:52:17.560Z,17.10
2019-05-05T02:54:45.749Z,14.57
2019-05-05T02:57:14.388Z,15.90
2019-05-05T02:59:50.529Z,15.37
2019-05-05T03:02:20.486Z,13.23
2019-05-05T03:04:49.251Z,16.40
2019-05-05T03:07:18.164Z,16.53
2019-05-05T03:09:47.249Z,15.17
2019-05-05T03:12:15.653Z,12.23
2019-05-05T03:14:44.728Z,12.90
2019-05-05T03:17:14.362Z,11.53
2019-05-05T03:19:44.449Z,10.70
2019-05-05T03:22:14.265Z,13.30
2019-05-05T03:24:44.535Z,15.27
2019-05-05T03:27:14.326Z,11.03
2019-05-05T03:29:44.208Z,14.10
2019-05-05T03:32:15.917Z,11.47
2019-05-05T03:34:44.386Z,13.93
2019-05-05T03:37:14.395Z,14.07
2019-05-05T03:39:44.562Z,10.33
2019-05-05T03:42:20.807Z,10.63
2019-05-05T03:45:04.072Z,12.40
2019-05-05T03:47:33.708Z,10.93
2019-05-05T03:50:04.185Z,10.97
2019-05-05T03:52:31.911Z,12.83
2019-05-05T03:55:00.226Z,13.63
2019-05-05T03:57:28.468Z,11.30
2019-05-05T03:59:57.665Z,15.80
2019-05-05T04:02:30.334Z,11.70
2019-05-05T04:05:15.188Z,12.17
2019-05-05T04:07:44.111Z,13.73
2019-05-05T04:10:14.038Z,13.47
2019-05-05T04:12:43.513Z,15.53
2019-05-05T04:15:14.055Z,11.53
2019-05-05T04:17:55.304Z,16.63
2019-05-05T04:20:25.084Z,15.33
2019-05-05T04:22:54.235Z,13.40
2019-05-05T04:25:24.393Z,16.03
2019-05-05T04:27:53.807Z,11.17
2019-05-05T04:30:23.716Z,12.80
2019-05-05T04:32:52.578Z,12.77
2019-05-05T04:35:21.880Z,14.13
2019-05-05T04:37:50.320Z,14.87
2019-05-05T04:40:18.424Z,15.40
2019-05-05T04:42:46.572Z,14.07
2019-05-05T04:45:15.239Z,15.20
2019-05-05T04:47:45.181Z,15.50
2019-05-05T04:50:17.960Z,19.40
2019-05-05T04:52:45.160Z,12.70
2019-05-05T04:55:13.835Z,15.93
2019-05-05T04:57:43.703Z,10.60
2019-05-05T05:00:13.743Z,11.47
2019-05-05T05:02:43.755Z,9.30
2019-05-05T05:05:19.355Z,11.37
2019-05-05T05:07:47.484Z,11.10
2019-05-05T05:10:15.676Z,14.10
2019-05-05T05:12:43.804Z,12.30
2019-05-05T05:15:14.414Z,11.03
2019-05-05T05:17:50.373Z,13.13
2019-05-05T05:20:18.582Z,13.60
2019-05-05T05:22:46.758Z,13.07
2019-05-05T05:25:14.894Z,10.23
2019-05-05T05:27:44.306Z,11.07
2019-05-05T05:30:13.723Z,14.70
2019-05-05T05:32:44.311Z,13.37
2019-05-05T05:35:13.920Z,9.67
2019-05-05T05:37:41.767Z,11.97
2019-05-05T05:40:20.410Z,8.30
2019-05-05T05:42:48.528Z,10.23
2019-05-05T05:45:18.364Z,9.53
2019-05-05T05:47:57.368Z,13.53
2019-05-05T05:50:39.091Z,12.13
2019-05-05T05:53:07.207Z,11.47
2019-05-05T05:55:35.349Z,10.87
2019-05-05T05:58:04.840Z,10.40
2019-05-05T06:00:34.322Z,13.50
2019-05-05T06:03:03.897Z,9.50
2019-05-05T06:05:34.339Z,11.53
2019-05-05T06:08:04.699Z,7.47
2019-05-05T06:10:33.868Z,9.33
2019-05-05T06:13:04.108Z,9.20
2019-05-05T06:15:33.768Z,7.17
2019-05-05T06:18:02.070Z,12.33
2019-05-05T06:20:30.192Z,7.47
2019-05-05T06:22:58.388Z,9.70
2019-05-05T06:25:26.957Z,9.27
2019-05-05T06:27:55.323Z,8.50
2019-05-05T06:30:24.414Z,7.77
2019-05-05T06:32:54.375Z,8.87
2019-05-05T06:35:24.508Z,7.53
2019-05-05T06:37:54.238Z,10.30
2019-05-05T06:40:26.968Z,8.70
2019-05-05T06:43:13.885Z,7.40
2019-05-05T06:45:53.542Z,10.30
2019-05-05T06:48:23.652Z,8.40
2019-05-05T06:50:51.617Z,9.87
2019-05-05T06:53:19.740Z,9.23
2019-05-05T06:55:47.843Z,8.47
2019-05-05T06:58:15.971Z,10.03
2019-05-05T07:00:44.336Z,9.83
2019-05-05T07:03:13.941Z,9.37
2019-05-05T07:05:43.800Z,11.40
2019-05-05T07:08:13.848Z,13.70
2019-05-05T07:10:44.263Z,12.13
2019-05-05T07:13:13.863Z,10.30
2019-05-05T07:15:43.746Z,10.10
2019-05-05T07:18:14.065Z,7.33
2019-05-05T07:20:43.474Z,14.90
2019-05-05T07:23:12.484Z,11.13
2019-05-05T07:25:45.308Z,9.93
2019-05-05T07:28:11.409Z,11.50
2019-05-05T07:30:39.516Z,8.20
2019-05-05T07:33:07.753Z,11.73
2019-05-05T07:35:55.050Z,12.27
2019-05-05T07:38:10.481Z,7.07
2019-05-05T07:40:38.696Z,8.13
2019-05-05T07:43:06.832Z,10.77
2019-05-05T07:45:34.935Z,9.40
2019-05-05T07:48:04.793Z,12.07
2019-05-05T07:50:35.677Z,7.27
2019-05-05T07:53:12.213Z,9.03
2019-05-05T07:55:34.319Z,12.00
2019-05-05T07:58:04.366Z,14.17
2019-05-05T08:00:34.293Z,11.20
2019-05-05T08:03:03.709Z,8.37
2019-05-05T08:05:33.545Z,11.40
2019-05-05T08:08:04.472Z,11.07
2019-05-05T08:10:34.209Z,11.40
2019-05-05T08:13:01.919Z,12.50
2019-05-05T08:15:30.220Z,10.23
2019-05-05T08:17:59.977Z,9.67
2019-05-05T08:20:29.819Z,11.97
2019-05-05T08:22:57.925Z,13.63
2019-05-05T08:25:45.359Z,11.10
2019-05-05T08:28:27.264Z,12.70
2019-05-05T08:30:59.772Z,11.97
2019-05-05T08:33:27.879Z,13.90
2019-05-05T08:35:56.052Z,10.47
2019-05-05T08:38:24.360Z,9.73
2019-05-05T08:40:54.305Z,7.73
2019-05-05T08:43:24.184Z,9.47
2019-05-05T08:45:52.593Z,11.77
2019-05-05T08:48:20.723Z,9.33
2019-05-05T08:50:48.830Z,12.37
2019-05-05T08:53:16.955Z,13.73
2019-05-05T08:55:45.128Z,8.93
2019-05-05T08:58:14.908Z,11.97
2019-05-05T09:00:44.356Z,15.87
2019-05-05T09:03:13.844Z,17.30
2019-05-05T09:05:43.743Z,9.77
2019-05-05T09:08:13.786Z,9.60
2019-05-05T09:10:42.199Z,12.63
2019-05-05T09:13:10.334Z,10.67
2019-05-05T09:15:38.531Z,10.57
2019-05-05T09:18:06.766Z,9.60
2019-05-05T09:20:34.939Z,10.37
2019-05-05T09:23:04.148Z,10.93
2019-05-05T09:25:40.458Z,10.30
2019-05-05T09:28:14.757Z,11.40
2019-05-05T09:30:44.776Z,13.37
2019-05-05T09:33:14.263Z,9.30
2019-05-05T09:35:43.705Z,8.80
2019-05-05T09:38:11.997Z,10.23
2019-05-05T09:40:41.111Z,11.80
2019-05-05T09:43:09.603Z,7.30
2019-05-05T09:45:38.313Z,6.90
2019-05-05T09:48:06.589Z,9.90
2019-05-05T09:50:35.023Z,9.33
2019-05-05T09:53:04.170Z,8.17
2019-05-05T09:55:33.587Z,8.30
2019-05-05T09:58:01.906Z,4.30
2019-05-05T10:00:30.815Z,8.97
2019-05-05T10:02:58.996Z,14.27
2019-05-05T10:05:27.211Z,7.87
2019-05-05T10:07:55.328Z,5.17
2019-05-05T10:10:24.335Z,9.80
2019-05-05T10:12:54.872Z,12.07
2019-05-05T10:15:22.593Z,11.43
2019-05-05T10:17:50.694Z,8.00
2019-05-05T10:20:18.813Z,8.97
2019-05-05T10:22:47.024Z,7.17
2019-05-05T10:25:29.049Z,9.17
2019-05-05T10:27:57.733Z,9.57
2019-05-05T10:30:26.322Z,6.33
2019-05-05T10:32:54.680Z,7.93
2019-05-05T10:35:23.874Z,11.23
2019-05-05T10:37:54.324Z,13.13
2019-05-05T10:40:26.463Z,9.80
2019-05-05T10:42:54.636Z,7.20
2019-05-05T10:45:24.430Z,6.33
2019-05-05T10:47:53.048Z,6.37
2019-05-05T10:50:21.156Z,6.87
2019-05-05T10:52:49.372Z,7.57
2019-05-05T10:55:18.454Z,8.43
2019-05-05T10:57:46.649Z,8.87
2019-05-05T11:00:16.312Z,6.97
2019-05-05T11:02:44.694Z,8.30
2019-05-05T11:05:14.624Z,6.77
2019-05-05T11:07:42.780Z,8.77
2019-05-05T11:10:11.613Z,7.87
2019-05-05T11:12:39.813Z,7.03
2019-05-05T11:15:07.990Z,10.30
2019-05-05T11:17:36.127Z,10.67
2019-05-05T11:20:05.774Z,3.87
2019-05-05T11:22:34.666Z,4.53
2019-05-05T11:25:05.001Z,4.43
2019-05-05T11:27:34.535Z,7.97
2019-05-05T11:30:11.524Z,3.70
2019-05-05T11:32:57.676Z,5.90
2019-05-05T11:35:36.826Z,5.70
2019-05-05T11:38:05.088Z,4.80
2019-05-05T11:40:33.209Z,7.63
2019-05-05T11:43:03.626Z,6.60
2019-05-05T11:45:31.305Z,4.00
2019-05-05T11:47:59.416Z,5.67
2019-05-05T11:50:27.566Z,5.13
2019-05-05T11:52:55.664Z,8.97
2019-05-05T11:55:24.880Z,6.97
2019-05-05T11:57:54.493Z,7.07
2019-05-05T12:00:24.149Z,7.50
2019-05-05T12:02:54.303Z,5.83
2019-05-05T12:05:24.280Z,4.10
2019-05-05T12:07:54.013Z,5.77
2019-05-05T12:10:23.752Z,5.97
2019-05-05T12:12:53.602Z,5.43
2019-05-05T12:15:23.814Z,9.73
2019-05-05T12:17:51.802Z,9.57
2019-05-05T12:20:27.148Z,7.73
2019-05-05T12:22:55.259Z,7.83
2019-05-05T12:25:28.392Z,7.87
2019-05-05T12:27:59.295Z,8.40
2019-05-05T12:30:27.449Z,10.03
2019-05-05T12:32:55.566Z,6.30
2019-05-05T12:35:23.882Z,5.33
2019-05-05T12:37:53.822Z,6.90
2019-05-05T12:40:22.146Z,7.43
2019-05-05T12:42:50.278Z,7.30
2019-05-05T12:45:20.195Z,9.00
2019-05-05T12:48:06.569Z,15.93
2019-05-05T12:50:34.907Z,7.83
2019-05-05T12:53:04.038Z,5.97
2019-05-05T12:55:41.593Z,7.53
2019-05-05T12:58:03.488Z,6.50
2019-05-05T13:00:32.219Z,7.70
2019-05-05T13:03:00.354Z,7.30
2019-05-05T13:05:28.465Z,9.20
2019-05-05T13:07:56.888Z,7.27
2019-05-05T13:10:25.006Z,6.70
2019-05-05T13:12:54.334Z,6.20
2019-05-05T13:15:24.608Z,8.57
2019-05-05T13:17:54.222Z,6.07
2019-05-05T13:20:30.430Z,5.43
2019-05-05T13:23:00.263Z,6.03
2019-05-05T13:25:33.635Z,7.23
2019-05-05T13:28:03.995Z,7.70
2019-05-05T13:30:31.888Z,4.37
2019-05-05T13:33:00.040Z,4.10
2019-05-05T13:35:28.149Z,6.67
2019-05-05T13:37:56.264Z,9.07
2019-05-05T13:40:26.015Z,9.57
2019-05-05T13:42:54.727Z,7.77
2019-05-05T13:45:27.337Z,9.77
2019-05-05T13:47:55.717Z,7.80
2019-05-05T13:50:25.561Z,3.47
2019-05-05T13:52:53.678Z,8.20
2019-05-05T13:55:24.055Z,6.13
2019-05-05T13:57:51.793Z,8.57
2019-05-05T14:00:20.601Z,4.73
2019-05-05T14:02:48.714Z,6.37
2019-05-05T14:05:16.848Z,3.67
2019-05-05T14:07:44.965Z,4.27
2019-05-05T14:10:14.444Z,4.80
2019-05-05T14:12:43.785Z,3.83
2019-05-05T14:15:13.578Z,4.97
2019-05-05T14:17:43.886Z,6.73
2019-05-05T14:20:14.259Z,6.27
2019-05-05T14:22:43.837Z,6.30
2019-05-05T14:25:17.015Z,6.53
2019-05-05T14:27:45.229Z,6.17
2019-05-05T14:30:21.305Z,8.80
2019-05-05T14:32:49.408Z,8.90
2019-05-05T14:35:35.261Z,4.43
2019-05-05T14:38:17.077Z,5.20
2019-05-05T14:40:45.210Z,8.10
2019-05-05T14:43:13.402Z,5.80
2019-05-05T14:45:41.676Z,6.03
2019-05-05T14:48:09.799Z,5.80
2019-05-05T14:50:38.278Z,6.90
2019-05-05T14:53:06.401Z,3.90
2019-05-05T14:55:34.525Z,6.53
2019-05-05T14:58:03.966Z,5.07
2019-05-05T15:00:33.692Z,5.80
2019-05-05T15:03:03.662Z,6.60
2019-05-05T15:05:45.699Z,8.37
2019-05-05T15:08:18.845Z,6.00
2019-05-05T15:11:00.659Z,5.43
2019-05-05T15:13:28.860Z,10.30
2019-05-05T15:15:56.974Z,9.13
2019-05-05T15:18:25.091Z,11.43
2019-05-05T15:20:54.654Z,7.13
2019-05-05T15:23:23.983Z,10.80
2019-05-05T15:25:54.012Z,8.67
2019-05-05T15:28:24.310Z,9.67
2019-05-05T15:30:54.285Z,6.20
2019-05-05T15:33:24.161Z,8.17
2019-05-05T15:35:53.800Z,10.93
2019-05-05T15:38:21.922Z,8.13
2019-05-05T15:40:50.111Z,11.27
2019-05-05T15:43:18.216Z,9.83
2019-05-05T15:45:46.524Z,10.27
2019-05-05T15:48:14.986Z,10.33
2019-05-05T15:50:43.961Z,8.37
2019-05-05T15:53:14.273Z,12.33
2019-05-05T15:55:42.572Z,9.63
2019-05-05T15:58:10.693Z,10.23
2019-05-05T16:00:38.831Z,7.23
2019-05-05T16:03:07.385Z,9.20
2019-05-05T16:05:35.585Z,8.77
2019-05-05T16:08:04.526Z,6.13
2019-05-05T16:10:34.732Z,9.77
2019-05-05T16:13:04.463Z,8.03
2019-05-05T16:15:34.722Z,8.57
2019-05-05T16:18:16.375Z,10.83
2019-05-05T16:20:46.146Z,9.57
2019-05-05T16:23:16.089Z,10.10
2019-05-05T16:25:46.322Z,11.10
2019-05-05T16:28:14.573Z,11.97
2019-05-05T16:30:44.538Z,8.53
2019-05-05T16:33:13.772Z,7.77
2019-05-05T16:35:43.723Z,8.17
2019-05-05T16:38:12.156Z,9.10
2019-05-05T16:40:40.337Z,9.73
2019-05-05T16:43:08.523Z,13.97
2019-05-05T16:45:36.699Z,8.57
2019-05-05T16:48:04.979Z,7.67
2019-05-05T16:50:34.052Z,7.40
2019-05-05T16:53:04.716Z,10.63
2019-05-05T16:55:40.258Z,8.47
2019-05-05T16:58:08.464Z,10.97
2019-05-05T17:00:37.748Z,8.33
2019-05-05T17:03:06.411Z,6.43
2019-05-05T17:05:34.685Z,8.67
2019-05-05T17:08:04.512Z,8.30
2019-05-05T17:10:34.234Z,8.20
2019-05-05T17:13:04.281Z,7.20
2019-05-05T17:15:35.479Z,8.80
2019-05-05T17:18:05.463Z,7.20
2019-05-05T17:20:46.876Z,7.30
2019-05-05T17:23:15.547Z,6.03
2019-05-05T17:25:43.953Z,6.17
2019-05-05T17:28:13.642Z,8.27
2019-05-05T17:30:43.508Z,8.47
2019-05-05T17:33:11.832Z,11.23
2019-05-05T17:35:39.985Z,7.53
2019-05-05T17:38:09.827Z,12.20
2019-05-05T17:40:39.759Z,10.00
2019-05-05T17:43:22.507Z,7.20
2019-05-05T17:45:59.083Z,9.90
2019-05-05T17:48:45.527Z,9.20
2019-05-05T17:51:15.304Z,10.40
2019-05-05T17:53:45.064Z,12.77
2019-05-05T17:56:13.778Z,12.30
2019-05-05T17:58:41.928Z,10.90
2019-05-05T18:01:10.112Z,11.47
2019-05-05T18:03:38.240Z,13.03
2019-05-05T18:06:24.749Z,14.23
2019-05-05T18:08:54.500Z,12.80
2019-05-05T18:11:44.164Z,8.27
2019-05-05T18:14:16.993Z,13.23
2019-05-05T18:16:45.150Z,13.00
2019-05-05T18:19:14.023Z,8.23
2019-05-05T18:21:43.872Z,13.67
2019-05-05T18:24:13.743Z,18.53
2019-05-05T18:26:43.553Z,10.47
2019-05-05T18:29:11.895Z,17.33
2019-05-05T18:31:40.004Z,9.00
2019-05-05T18:34:08.144Z,11.50
2019-05-05T18:36:36.308Z,11.10
2019-05-05T18:39:06.381Z,15.07
2019-05-05T18:41:36.145Z,11.47
2019-05-05T18:44:05.923Z,9.43
2019-05-05T18:46:34.043Z,11.60
2019-05-05T18:49:04.251Z,9.23
2019-05-05T18:51:32.010Z,10.47
2019-05-05T18:54:00.120Z,8.57
2019-05-05T18:56:28.255Z,10.23
2019-05-05T18:58:56.360Z,9.47
2019-05-05T19:01:35.109Z,8.93
2019-05-05T19:04:05.149Z,9.00
2019-05-05T19:06:40.993Z,9.37
2019-05-05T19:09:10.748Z,9.77
2019-05-05T19:11:39.022Z,13.47
2019-05-05T19:14:07.133Z,11.97
2019-05-05T19:16:35.268Z,11.23
2019-05-05T19:19:03.764Z,9.80
2019-05-05T19:21:33.989Z,13.43
2019-05-05T19:24:03.899Z,11.43
2019-05-05T19:26:33.733Z,8.70
2019-05-05T19:29:04.396Z,7.90
2019-05-05T19:31:36.271Z,6.50
2019-05-05T19:34:04.035Z,10.07
2019-05-05T19:36:34.297Z,7.00
2019-05-05T19:39:04.136Z,7.40
2019-05-05T19:41:32.203Z,10.40
2019-05-05T19:44:01.965Z,9.67
2019-05-05T19:46:34.915Z,8.77
2019-05-05T19:49:16.038Z,7.07
2019-05-05T19:51:44.889Z,6.93
2019-05-05T19:54:14.326Z,7.67
2019-05-05T19:56:44.568Z,6.03
2019-05-05T19:59:13.726Z,12.07
2019-05-05T20:01:44.732Z,10.37
2019-05-05T20:04:14.479Z,8.57
2019-05-05T20:06:44.181Z,9.93
2019-05-05T20:09:14.171Z,5.60
2019-05-05T20:11:43.777Z,7.50
2019-05-05T20:14:14.893Z,8.70
2019-05-05T20:17:10.365Z,7.23
2019-05-05T20:19:43.988Z,13.70
2019-05-05T20:22:14.605Z,8.30
2019-05-05T20:24:47.466Z,7.83
2019-05-05T20:27:15.939Z,8.73
2019-05-05T20:29:44.526Z,10.53
2019-05-05T20:32:15.153Z,9.23
2019-05-05T20:34:54.492Z,8.93
2019-05-05T20:37:30.677Z,9.13
2019-05-05T20:40:05.918Z,13.67
2019-05-05T20:42:38.704Z,13.43
2019-05-05T20:45:11.990Z,10.43
2019-05-05T20:47:44.402Z,10.60
2019-05-05T20:50:24.772Z,8.93
2019-05-05T20:52:53.659Z,8.33
2019-05-05T20:55:23.119Z,11.30
2019-05-05T20:57:53.722Z,9.87
2019-05-05T21:00:24.020Z,12.70
2019-05-05T21:02:53.850Z,12.27
2019-05-05T21:05:34.380Z,12.53
2019-05-05T21:08:05.041Z,7.67
2019-05-05T21:10:37.003Z,11.47
2019-05-05T21:13:07.125Z,10.27
2019-05-05T21:15:38.575Z,13.30
2019-05-05T21:18:08.606Z,9.67
2019-05-05T21:20:40.326Z,8.80
2019-05-05T21:23:16.507Z,10.17
2019-05-05T21:26:01.082Z,12.97
2019-05-05T21:28:30.579Z,8.37
2019-05-05T21:30:59.169Z,10.80
2019-05-05T21:33:27.861Z,8.50
2019-05-05T21:35:58.088Z,9.10
2019-05-05T21:38:35.400Z,10.30
2019-05-05T21:41:04.271Z,7.07
2019-05-05T21:43:33.432Z,13.83
2019-05-05T21:46:06.423Z,10.10
2019-05-05T21:48:36.454Z,11.63
2019-05-05T21:51:14.123Z,11.93
2019-05-05T21:54:09.547Z,14.50
2019-05-05T21:56:47.033Z,9.43
2019-05-05T21:59:17.460Z,10.50
2019-05-05T22:01:49.545Z,11.47
2019-05-05T22:04:33.798Z,13.70
2019-05-05T22:07:03.727Z,14.03
2019-05-05T22:09:35.444Z,14.30
2019-05-05T22:12:06.280Z,12.17
2019-05-05T22:14:40.700Z,15.03
2019-05-05T22:17:14.504Z,8.20
2019-05-05T22:19:51.484Z,8.60
2019-05-05T22:22:28.080Z,8.17
2019-05-05T22:25:04.010Z,10.27
2019-05-05T22:27:35.451Z,9.80
2019-05-05T22:30:09.873Z,11.10
2019-05-05T22:32:38.062Z,11.10
2019-05-05T22:35:11.272Z,11.00
2019-05-05T22:37:39.624Z,11.77
2019-05-05T22:40:13.831Z,13.90
2019-05-05T22:42:46.319Z,13.57
2019-05-05T22:45:18.595Z,12.47
2019-05-05T22:47:50.151Z,9.80
2019-05-05T22:50:18.929Z,10.30
2019-05-05T22:53:05.343Z,14.33
2019-05-05T22:55:34.366Z,11.47
2019-05-05T22:58:04.030Z,11.97
2019-05-05T23:00:34.637Z,12.37
2019-05-05T23:03:04.460Z,13.03
2019-05-05T23:05:54.552Z,11.43
2019-05-05T23:08:24.193Z,12.60
2019-05-05T23:10:54.271Z,11.13
2019-05-05T23:13:21.969Z,8.60
2019-05-05T23:15:51.725Z,11.63
2019-05-05T23:18:25.700Z,12.30
2019-05-05T23:20:58.513Z,16.17
2019-05-05T23:23:28.288Z,11.90
2019-05-05T23:25:58.091Z,15.17
2019-05-05T23:28:26.467Z,12.73
2019-05-05T23:30:54.827Z,12.70
2019-05-05T23:33:25.020Z,12.10
2019-05-05T23:35:55.017Z,10.67
2019-05-05T23:38:23.934Z,10.33
2019-05-05T23:40:54.069Z,11.53
2019-05-05T23:43:24.616Z,12.30
2019-05-05T23:45:54.058Z,12.50
2019-05-05T23:48:24.091Z,14.57
2019-05-05T23:50:54.163Z,13.73
2019-05-05T23:53:24.479Z,18.40
2019-05-05T23:55:54.438Z,14.17
2019-05-05T23:58:24.011Z,14.13
